Terminal Aerodrome Forecast
Issued by NWS Tuscon, AZ

Home | Current Version | Previous Version | Text Only | Print | Product List | Glossary On
Versions: 1 2 3 4 5 6 7 8 9 10 11 12 13 14
846
FTUS45 KTWC 301139
TAFDUG
TAF
KDUG 301139Z 3012/3112 11007KT P6SM FEW110 OVC200
     FM302100 29010KT P6SM SCT090 BKN180=

USA.gov is the U.S. government's official web portal to all federal, state and local government web resources and services.